Details for Ryanair at LGKR




Go Back


Latest METAR
Local Time

LGKR 252150Z 35004KT 320V020 9999 SCT020 BKN030 BKN080 20/19 Q1013 NOSIG

26/05/2018, 01:15:28

Description
Results
Ryanair Logo
Number of Pilots based at LGKR
0 Pilots Based here
Number of Ryanair Flights Departed from LGKR
3 Flights Departed
Number of Ryanair Flights Arrived at LGKR
6 Flights Arrived
Number of Ryanair Schedules Departing from LGKR
28 Schedules
Number of Ryanair Schedules Arriving at LGKR
27 Schedules
Number of Ryanair Schedules Departing from LGKR availible today
3 Schedules Today
Number of Ryanair Schedules Arriving at LGKR availible today
3 Schedules Today
Average Landing Rate at LGKR
-252 fpm
Ryanair Average Landing Rate at LGKR
-208 fpm
Total Fuel Purchased at LGKR by Ryanair
18,132.93 kgs / 39,975.86 lbs

Pilots Based at LGKR


Pilot ID
Pilot Name
Pilot Rank
No. of Flights
No. of Flying Hours
There are no pilots assigned to this hub!   Will you be the first?
Content